This is the latest recevied weather packets stored in our database for station/object VK2BLR. If no packets are shown the sender has not sent any weather packets the latest 10 day(s).
| Time | Temp. | Humidity | Pressure | Rain* | Wind** | Luminosity | Snow |
|---|---|---|---|---|---|---|---|
| 1777866813 | 15.56° C | 87% | 1013.9 hPa | 0.51 mm | - | - | - |
| 1777865912 | 15.56° C | 86% | 1013.9 hPa | 0.25 mm | - | - | - |
| 1777865014 | 15.56° C | 85% | 1014.2 hPa | 0.51 mm | - | - | - |
| 1777864113 | 16.11° C | 85% | 1014 hPa | 1.02 mm | - | - | - |
| 1777863212 | 16.11° C | 85% | 1014.2 hPa | 0.51 mm | - | - | - |
| 1777862312 | 16.11° C | 83% | 1014.6 hPa | 0.51 mm | - | - | - |
| 1777861413 | 16.67° C | 82% | 1014.7 hPa | 0.25 mm | - | - | - |
| 1777860513 | 17.78° C | 76% | 1014.8 hPa | 0 mm | - | - | - |
| 1777859612 | 18.33° C | 75% | 1015 hPa | 0 mm | - | - | - |
| 1777858712 | 18.33° C | 73% | 1015.1 hPa | 0 mm | - | - | - |
| 1777857813 | 18.89° C | 73% | 1015.1 hPa | 0 mm | - | - | - |
| 1777856913 | 18.89° C | 72% | 1015.3 hPa | 0 mm | - | - | - |
| 1777856013 | 19.44° C | 72% | 1015.2 hPa | 0 mm | - | - | - |
| 1777855113 | 19.44° C | 72% | 1015.4 hPa | 0 mm | - | - | - |
| 1777854212 | 20° C | 71% | 1015.2 hPa | 0 mm | - | - | - |
| 1777853314 | 20.56° C | 72% | 1015.1 hPa | 0 mm | - | - | - |
| 1777852414 | 19.44° C | 72% | 1015.1 hPa | 0 mm | - | - | - |
| 1777851513 | 18.89° C | 76% | 1015.1 hPa | 0 mm | - | - | - |
| 1777850613 | 18.89° C | 78% | 1015.2 hPa | 0 mm | - | - | - |
| 1777849712 | 18.33° C | 82% | 1015.1 hPa | 0 mm | - | - | - |
| 1777848813 | 17.22° C | 90% | 1015.3 hPa | 1.02 mm | - | - | - |
| 1777847913 | 16.67° C | 90% | 1015.1 hPa | 1.02 mm | - | - | - |
| 1777847012 | 16.67° C | 91% | 1014.6 hPa | 1.52 mm | - | - | - |
| 1777846113 | 16.67° C | 93% | 1014.8 hPa | 2.79 mm | - | - | - |
| 1777845213 | 16.67° C | 94% | 1015 hPa | 3.81 mm | - | - | - |
* Rain latest hour (hover to see other rain measurements)
** Current wind speed in m/s (hover to see current wind gust speed)